Time;durP1;ratioP1;P1;durP2;ratioP2;P2;SDS_P1;SDS_P2;PMS_P1;PMS_P2;Temp;Humidity;BMP_temperature;BMP_pressure;BME280_temperature;BME280_humidity;BME280_pressure;Samples;Min_cycle;Max_cycle;Signal;HPM_P1;HPM_P2
2023/07/16 00:00:15;;;;;;;;;2.00;2.00;;;;;21.03;58.28;99231.31;5034429;28;8828;-61
2023/07/16 00:02:43;;;;;;;;;3.20;2.00;;;;;21.06;58.33;99236.31;5031504;28;8850;-61
2023/07/16 00:05:11;;;;;;;;;1.40;1.40;;;;;21.07;58.34;99233.41;5014046;28;8842;-61
2023/07/16 00:07:39;;;;;;;;;2.00;2.00;;;;;21.09;58.41;99228.59;5015082;28;8968;-61
2023/07/16 00:10:07;;;;;;;;;2.00;2.00;;;;;21.10;58.22;99229.44;5014775;28;8814;-60
2023/07/16 00:12:34;;;;;;;;;1.60;1.60;;;;;21.09;58.59;99225.03;5014845;28;8838;-61
2023/07/16 00:15:02;;;;;;;;;1.20;1.20;;;;;21.10;58.45;99245.69;5021439;28;8828;-61
2023/07/16 00:17:30;;;;;;;;;2.00;2.00;;;;;21.11;58.20;99234.63;5028127;28;8810;-62
2023/07/16 00:19:58;;;;;;;;;1.80;1.80;;;;;21.14;58.45;99239.66;5014725;28;8840;-61
2023/07/16 00:22:28;;;;;;;;;2.00;2.00;;;;;21.17;58.71;99251.94;5017833;28;8854;-61
2023/07/16 00:24:55;;;;;;;;;4.60;4.00;;;;;21.17;58.53;99254.63;5034127;28;8855;-61
2023/07/16 00:27:23;;;;;;;;;2.00;2.00;;;;;21.17;58.67;99251.94;5032126;28;8822;-60
2023/07/16 00:29:51;;;;;;;;;3.20;2.00;;;;;21.19;58.51;99255.28;5030915;28;8816;-61
2023/07/16 00:32:18;;;;;;;;;2.40;2.00;;;;;21.19;59.13;99247.97;5031297;28;8894;-61
2023/07/16 00:34:46;;;;;;;;;1.80;1.80;;;;;21.20;58.87;99248.81;5014030;28;8834;-61
2023/07/16 00:37:14;;;;;;;;;1.00;1.00;;;;;21.20;59.05;99260.47;5014596;28;8864;-61
2023/07/16 00:39:42;;;;;;;;;2.00;2.00;;;;;21.20;58.78;99260.47;5015179;28;9529;-61
2023/07/16 00:42:09;;;;;;;;;2.00;1.40;;;;;21.21;58.92;99258.63;5014839;28;8844;-61
2023/07/16 00:44:37;;;;;;;;;1.60;1.60;;;;;21.21;58.74;99267.59;5014596;28;9535;-60
2023/07/16 00:47:05;;;;;;;;;2.00;1.60;;;;;21.20;59.06;99265.06;5028586;28;8848;-61
2023/07/16 00:49:33;;;;;;;;;1.00;1.00;;;;;21.21;59.83;99253.19;5033629;28;8808;-61
2023/07/16 00:52:01;;;;;;;;;1.80;1.20;;;;;21.21;59.20;99259.47;5033448;28;8812;-61
2023/07/16 00:54:28;;;;;;;;;4.00;2.40;;;;;21.20;59.29;99260.47;5033424;28;8824;-61
2023/07/16 00:56:56;;;;;;;;;2.00;2.00;;;;;21.18;59.91;99256.34;5031970;28;8850;-60
2023/07/16 00:59:24;;;;;;;;;1.40;1.00;;;;;21.18;59.85;99259.03;5014431;28;8826;-61
2023/07/16 01:01:52;;;;;;;;;1.00;1.00;;;;;21.14;59.77;99260.47;5013715;28;9381;-60
2023/07/16 01:04:19;;;;;;;;;1.80;1.00;;;;;21.07;60.09;99265.03;5013042;28;8818;-59
2023/07/16 01:06:47;;;;;;;;;2.00;2.00;;;;;21.04;59.98;99257.34;5024147;28;8974;-59
2023/07/16 01:09:15;;;;;;;;;2.00;2.00;;;;;21.01;60.23;99261.28;5014549;28;8906;-60
2023/07/16 01:11:43;;;;;;;;;2.00;2.00;;;;;20.99;60.20;99257.09;5030907;28;8832;-60
2023/07/16 01:14:10;;;;;;;;;4.00;2.00;;;;;20.97;60.31;99259.19;5025904;28;8821;-61
2023/07/16 01:16:38;;;;;;;;;4.80;4.80;;;;;20.92;60.57;99270.66;5027487;28;8826;-60
2023/07/16 01:19:06;;;;;;;;;3.60;2.00;;;;;20.88;61.15;99267.69;5033561;28;9537;-60
2023/07/16 01:21:34;;;;;;;;;4.00;4.00;;;;;20.81;61.10;99260.34;5033322;28;8974;-60
2023/07/16 01:24:02;;;;;;;;;3.60;2.80;;;;;20.77;60.98;99257.44;5033686;28;8812;-59
2023/07/16 01:26:29;;;;;;;;;2.00;2.00;;;;;20.70;61.23;99262.00;5033309;28;8820;-60
2023/07/16 01:28:57;;;;;;;;;1.80;1.80;;;;;20.65;61.68;99262.63;5033531;28;8859;-61
2023/07/16 01:31:25;;;;;;;;;2.40;2.40;;;;;20.59;61.28;99266.13;5032975;28;8859;-60
2023/07/16 01:33:53;;;;;;;;;3.20;3.20;;;;;20.53;61.47;99266.91;5033527;28;8816;-61
2023/07/16 01:36:21;;;;;;;;;2.40;2.40;;;;;20.47;61.54;99267.72;5033267;28;8840;-60
2023/07/16 01:38:48;;;;;;;;;3.60;3.60;;;;;20.41;62.18;99268.50;5033517;28;8836;-61
2023/07/16 01:41:16;;;;;;;;;3.60;3.60;;;;;20.33;62.02;99265.97;5032997;28;8855;-61
2023/07/16 01:43:44;;;;;;;;;2.80;2.80;;;;;20.29;61.91;99272.00;5032845;28;8828;-61
2023/07/16 01:46:11;;;;;;;;;4.00;4.00;;;;;20.22;62.41;99268.41;5032874;28;8838;-60
2023/07/16 01:48:40;;;;;;;;;4.00;2.80;;;;;20.17;62.25;99273.59;5027340;28;8830;-59
2023/07/16 01:51:08;;;;;;;;;3.20;3.20;;;;;20.11;62.74;99290.63;5013638;28;9555;-61
2023/07/16 01:53:35;;;;;;;;;4.00;4.00;;;;;20.07;62.49;99279.38;5012929;28;8814;-60
2023/07/16 01:56:03;;;;;;;;;2.00;2.00;;;;;20.05;62.96;99286.84;5013157;28;8853;-61
2023/07/16 01:58:32;;;;;;;;;3.20;3.20;;;;;20.02;62.90;99289.06;5027596;28;8800;-61
2023/07/16 02:01:00;;;;;;;;;2.40;2.00;;;;;20.00;62.96;99288.41;5032953;28;8823;-61
2023/07/16 02:03:28;;;;;;;;;2.20;2.20;;;;;19.96;62.96;99293.38;5033019;28;8827;-58
2023/07/16 02:05:56;;;;;;;;;2.80;2.40;;;;;19.91;63.20;99298.56;5032704;28;8862;-60
2023/07/16 02:08:23;;;;;;;;;2.20;2.20;;;;;19.87;63.01;99297.28;5032715;28;8839;-61
2023/07/16 02:10:51;;;;;;;;;2.20;1.80;;;;;19.81;63.20;99298.06;5030647;28;8958;-58
2023/07/16 02:13:20;;;;;;;;;2.00;1.00;;;;;19.77;63.52;99304.91;5032192;28;8808;-59
2023/07/16 02:15:47;;;;;;;;;1.00;1.00;;;;;19.72;63.55;99310.03;5016401;28;8842;-61
2023/07/16 02:18:15;;;;;;;;;1.60;1.60;;;;;19.68;63.61;99308.78;5013094;28;8903;-61
2023/07/16 02:20:42;;;;;;;;;5.80;4.40;;;;;19.64;63.73;99310.19;5012698;28;8830;-58
2023/07/16 02:23:10;;;;;;;;;2.20;2.20;;;;;19.59;63.76;99307.25;5012656;28;8919;-60
2023/07/16 02:25:38;;;;;;;;;4.20;4.20;;;;;19.55;63.92;99319.47;5013057;28;8846;-59
2023/07/16 02:28:06;;;;;;;;;0.00;0.00;;;;;19.52;63.62;99327.97;5021752;28;8836;-59
2023/07/16 02:30:34;;;;;;;;;2.20;2.20;;;;;19.50;64.01;99321.91;5034123;28;8852;-60
2023/07/16 02:33:02;;;;;;;;;3.20;2.20;;;;;19.47;63.89;99319.59;5029242;28;8849;-60
2023/07/16 02:35:29;;;;;;;;;0.20;0.20;;;;;19.46;64.40;99322.47;5014969;28;8865;-60
2023/07/16 02:37:58;;;;;;;;;2.20;2.20;;;;;19.43;63.89;99315.59;5016634;28;8858;-61
2023/07/16 02:40:25;;;;;;;;;2.40;2.40;;;;;19.41;64.10;99330.34;5014997;28;9496;-61
2023/07/16 02:42:53;;;;;;;;;4.20;4.20;;;;;19.41;64.75;99330.34;5015412;28;8822;-60
2023/07/16 02:45:21;;;;;;;;;3.80;3.80;;;;;19.39;64.06;99333.22;5015287;28;8869;-61
2023/07/16 02:47:48;;;;;;;;;0.80;0.00;;;;;19.41;64.59;99333.88;5015346;28;8876;-61
2023/07/16 02:50:16;;;;;;;;;3.80;3.00;;;;;19.41;64.48;99339.25;5015479;28;8907;-58
2023/07/16 02:52:44;;;;;;;;;6.40;4.00;;;;;19.41;64.26;99333.88;5016497;28;8838;-60
2023/07/16 02:55:12;;;;;;;;;4.00;4.00;;;;;19.41;64.25;99336.56;5033896;28;9727;-61
2023/07/16 02:57:39;;;;;;;;;4.00;4.00;;;;;19.41;64.25;99339.25;5034184;28;8820;-59
2023/07/16 03:00:07;;;;;;;;;3.80;3.80;;;;;19.38;65.03;99342.38;5035106;28;8824;-61
2023/07/16 03:02:35;;;;;;;;;3.40;3.00;;;;;19.37;64.55;99338.00;5034264;28;8835;-60
2023/07/16 03:05:03;;;;;;;;;2.80;2.80;;;;;19.37;64.69;99351.50;5015483;28;8834;-59
2023/07/16 03:07:31;;;;;;;;;2.60;2.60;;;;;19.37;64.94;99354.19;5016618;28;8859;-61
2023/07/16 03:09:58;;;;;;;;;2.40;1.00;;;;;19.37;64.99;99356.91;5015842;28;8842;-61
2023/07/16 03:12:26;;;;;;;;;2.40;2.40;;;;;19.37;65.05;99356.91;5015549;28;8838;-61
2023/07/16 03:14:54;;;;;;;;;3.60;3.60;;;;;19.38;64.67;99355.88;5015451;28;8960;-60
2023/07/16 03:17:22;;;;;;;;;3.00;3.00;;;;;19.40;64.65;99359.22;5015762;28;8834;-60
2023/07/16 03:19:50;;;;;;;;;0.40;0.40;;;;;19.41;64.74;99363.56;5022661;28;8935;-59
2023/07/16 03:22:18;;;;;;;;;2.80;2.80;;;;;19.44;64.67;99359.66;5035362;28;8824;-61
2023/07/16 03:24:45;;;;;;;;;3.00;3.00;;;;;19.48;64.44;99359.06;5035136;28;8842;-61
2023/07/16 03:27:13;;;;;;;;;3.40;2.60;;;;;19.51;64.16;99365.97;5035001;28;8854;-60
2023/07/16 03:29:45;;;;;;;;;2.60;1.60;;;;;19.52;64.33;99359.53;5035605;28;9526;-60
2023/07/16 03:32:13;;;;;;;;;1.60;1.60;;;;;19.54;64.28;99370.97;5035297;28;8831;-61
2023/07/16 03:34:41;;;;;;;;;3.00;2.80;;;;;19.53;64.36;99375.56;5034839;28;8848;-59
2023/07/16 03:37:08;;;;;;;;;2.20;2.20;;;;;19.52;64.39;99370.34;5034880;28;8812;-61
2023/07/16 03:39:36;;;;;;;;;2.40;2.40;;;;;19.50;64.72;99375.91;5035132;28;8824;-61
2023/07/16 03:42:04;;;;;;;;;2.20;2.20;;;;;19.47;64.09;99379.03;5035567;28;8831;-61
2023/07/16 03:44:32;;;;;;;;;1.00;1.00;;;;;19.44;64.15;99384.81;5034910;28;8843;-61
2023/07/16 03:46:59;;;;;;;;;2.60;2.60;;;;;19.42;64.40;99391.44;5034640;28;8840;-61
2023/07/16 03:49:27;;;;;;;;;1.20;1.20;;;;;19.42;64.81;99391.44;5034688;28;8846;-61
2023/07/16 03:51:55;;;;;;;;;1.00;1.00;;;;;19.39;64.46;99402.59;5034901;28;8840;-60
2023/07/16 03:54:23;;;;;;;;;2.80;2.80;;;;;19.38;64.61;99390.97;5034968;28;8845;-60
2023/07/16 03:56:50;;;;;;;;;0.00;0.00;;;;;19.33;64.79;99396.09;5034767;28;8862;-60
2023/07/16 03:59:18;;;;;;;;;1.20;1.20;;;;;19.31;64.51;99408.13;5034666;28;8828;-60
2023/07/16 04:01:46;;;;;;;;;1.00;1.00;;;;;19.29;64.44;99418.28;5034341;28;8840;-60
2023/07/16 04:04:14;;;;;;;;;3.00;3.00;;;;;19.27;64.42;99418.47;5025302;28;8818;-60
2023/07/16 04:06:42;;;;;;;;;3.00;3.00;;;;;19.25;64.40;99414.28;5014644;28;8976;-61
2023/07/16 04:09:09;;;;;;;;;3.00;3.00;;;;;19.22;64.46;99417.38;5015735;28;8872;-60
2023/07/16 04:11:37;;;;;;;;;0.80;0.80;;;;;19.19;64.16;99423.97;5014535;28;8822;-61
2023/07/16 04:14:04;;;;;;;;;1.60;1.20;;;;;19.17;64.08;99428.69;5014460;28;8833;-61
2023/07/16 04:16:32;;;;;;;;;1.20;1.00;;;;;19.17;64.24;99431.41;5014929;28;8834;-61
2023/07/16 04:19:00;;;;;;;;;3.00;3.00;;;;;19.15;64.45;99430.75;5026895;28;8939;-61
2023/07/16 04:21:27;;;;;;;;;2.80;2.00;;;;;19.16;63.80;99431.59;5034172;28;8835;-60
2023/07/16 04:23:55;;;;;;;;;3.60;3.20;;;;;19.16;63.95;99432.44;5022386;28;8802;-60
2023/07/16 04:26:23;;;;;;;;;0.00;0.00;;;;;19.19;63.54;99425.81;5014378;28;9537;-61
2023/07/16 04:28:51;;;;;;;;;3.00;3.00;;;;;19.19;63.79;99436.63;5014174;28;8848;-61
2023/07/16 04:31:19;;;;;;;;;3.00;1.00;;;;;19.19;63.12;99432.06;5014319;28;8818;-61
2023/07/16 04:33:46;;;;;;;;;1.00;1.00;;;;;19.18;63.33;99438.47;5023277;28;8816;-60
2023/07/16 04:36:14;;;;;;;;;3.00;2.60;;;;;19.18;63.61;99441.16;5024762;28;8956;-59
2023/07/16 04:38:42;;;;;;;;;1.00;1.00;;;;;19.19;62.80;99452.81;5015617;28;8810;-61
2023/07/16 04:41:12;;;;;;;;;2.20;2.20;;;;;19.20;63.19;99443.72;5014262;28;8844;-60
2023/07/16 04:43:40;;;;;;;;;1.00;1.00;;;;;19.21;62.81;99448.91;5023237;28;8871;-60
2023/07/16 04:46:08;;;;;;;;;3.40;3.20;;;;;19.21;62.80;99450.78;5033928;28;8963;-61
2023/07/16 04:48:35;;;;;;;;;2.80;2.80;;;;;19.23;63.02;99444.19;5033500;28;8816;-61
2023/07/16 04:51:03;;;;;;;;;1.00;1.00;;;;;19.25;62.47;99462.88;5034076;28;8846;-61
2023/07/16 04:53:31;;;;;;;;;1.00;1.00;;;;;19.26;62.22;99465.41;5029569;28;8836;-61
2023/07/16 04:55:59;;;;;;;;;1.00;1.00;;;;;19.29;62.73;99464.19;5013696;28;9499;-59
2023/07/16 04:58:26;;;;;;;;;1.00;1.00;;;;;19.31;62.62;99462.13;5014213;28;8836;-58
2023/07/16 05:00:54;;;;;;;;;1.00;1.00;;;;;19.33;61.80;99458.22;5014100;28;8834;-59
2023/07/16 05:03:22;;;;;;;;;2.80;2.80;;;;;19.33;61.91;99463.63;5014898;28;8834;-60
2023/07/16 05:05:51;;;;;;;;;1.80;1.80;;;;;19.37;61.84;99466.78;5015211;28;8969;-60
2023/07/16 05:08:19;;;;;;;;;1.00;1.00;;;;;19.40;61.52;99467.25;5031553;28;8829;-58
2023/07/16 05:10:47;;;;;;;;;1.00;1.00;;;;;19.42;61.62;99478.69;5033118;28;8808;-58
2023/07/16 05:13:15;;;;;;;;;3.00;3.00;;;;;19.45;61.41;99474.78;5033094;28;8828;-60
2023/07/16 05:15:42;;;;;;;;;1.00;0.60;;;;;19.46;61.71;99468.34;5033723;28;8847;-60
2023/07/16 05:18:10;;;;;;;;;3.80;3.80;;;;;19.49;61.66;99486.88;5032030;28;9517;-58
2023/07/16 05:20:38;;;;;;;;;3.00;3.00;;;;;19.50;61.23;99475.88;5022085;28;8812;-61
2023/07/16 05:23:06;;;;;;;;;2.80;2.80;;;;;19.53;61.03;99480.91;5033595;28;8842;-61
2023/07/16 05:25:34;;;;;;;;;1.40;0.60;;;;;19.57;61.35;99492.19;5033265;28;8908;-59
2023/07/16 05:28:01;;;;;;;;;1.00;1.00;;;;;19.60;60.55;99500.75;5033504;28;9509;-60
2023/07/16 05:30:31;;;;;;;;;1.60;1.60;;;;;19.65;60.29;99500.97;5033228;28;8824;-60
2023/07/16 05:32:59;;;;;;;;;3.00;3.00;;;;;19.69;60.28;99505.00;5033153;28;8840;-58
2023/07/16 05:35:26;;;;;;;;;1.00;1.00;;;;;19.73;60.64;99510.84;5033383;28;8924;-60
2023/07/16 05:37:54;;;;;;;;;3.20;1.60;;;;;19.76;59.73;99511.31;5033020;28;8842;-61
2023/07/16 05:40:22;;;;;;;;;2.40;2.20;;;;;19.82;60.07;99510.56;5033017;28;8808;-58
2023/07/16 05:42:50;;;;;;;;;1.00;1.00;;;;;19.84;59.62;99516.59;5034380;28;8851;-61
2023/07/16 05:45:18;;;;;;;;;2.20;1.00;;;;;19.88;59.83;99514.34;5033335;28;8828;-60
2023/07/16 05:47:45;;;;;;;;;2.60;2.60;;;;;19.91;59.28;99509.41;5033137;28;8937;-60
2023/07/16 05:50:13;;;;;;;;;1.40;1.40;;;;;19.92;59.36;99513.78;5032644;28;8924;-59
2023/07/16 05:52:43;;;;;;;;;1.40;1.40;;;;;19.96;59.70;99522.34;5032897;28;8820;-60
2023/07/16 05:55:11;;;;;;;;;1.80;1.40;;;;;20.03;59.03;99509.72;5033009;28;8877;-60
2023/07/16 05:57:39;;;;;;;;;1.80;1.80;;;;;20.05;59.08;99516.66;5032949;28;8828;-58
2023/07/16 06:00:06;;;;;;;;;1.00;1.00;;;;;20.12;59.04;99522.13;5032791;28;8855;-61
2023/07/16 06:02:34;;;;;;;;;4.40;4.40;;;;;20.23;58.27;99527.84;5032911;28;8828;-60
2023/07/16 06:05:02;;;;;;;;;2.80;2.20;;;;;20.32;58.51;99523.16;5020778;28;8964;-60
2023/07/16 06:07:30;;;;;;;;;2.20;2.20;;;;;20.32;58.13;99528.56;5018034;28;8824;-58
2023/07/16 06:09:58;;;;;;;;;2.20;1.00;;;;;20.29;58.23;99529.78;5032236;28;8826;-60
2023/07/16 06:12:26;;;;;;;;;4.80;4.80;;;;;20.31;58.51;99527.72;5030430;28;8853;-59
2023/07/16 06:14:54;;;;;;;;;1.80;1.80;;;;;20.37;58.39;99531.50;5016555;28;9601;-59
2023/07/16 06:17:22;;;;;;;;;2.00;2.00;;;;;20.35;58.23;99531.72;5016634;28;8968;-59
2023/07/16 06:19:51;;;;;;;;;2.40;2.00;;;;;20.30;58.54;99536.88;5023322;28;8908;-60
2023/07/16 06:22:19;;;;;;;;;4.00;4.00;;;;;20.23;58.20;99529.72;5032640;28;8810;-59
2023/07/16 06:24:47;;;;;;;;;4.20;3.60;;;;;20.15;58.48;99536.09;5016627;28;9472;-60
2023/07/16 06:27:14;;;;;;;;;3.20;3.20;;;;;20.08;58.87;99537.91;5016371;28;8956;-61
2023/07/16 06:29:42;;;;;;;;;4.00;2.20;;;;;20.01;58.76;99542.34;5016234;28;8845;-61
2023/07/16 06:32:10;;;;;;;;;5.20;5.20;;;;;19.94;59.22;99541.44;5016268;28;8842;-61
2023/07/16 06:34:38;;;;;;;;;4.00;4.00;;;;;19.95;59.06;99543.13;5015703;28;8810;-60
2023/07/16 06:37:05;;;;;;;;;4.00;4.00;;;;;19.97;58.35;99549.19;5017213;28;8901;-61
2023/07/16 06:39:33;;;;;;;;;4.60;4.40;;;;;20.06;58.17;99548.06;5028358;28;8804;-60
2023/07/16 06:42:01;;;;;;;;;4.60;3.80;;;;;20.18;58.23;99533.00;5035554;28;8908;-59
2023/07/16 06:44:29;;;;;;;;;1.20;1.20;;;;;20.33;57.92;99546.47;5019655;28;8812;-61
2023/07/16 06:46:57;;;;;;;;;3.60;2.40;;;;;20.49;56.73;99557.84;5035404;28;8854;-59
2023/07/16 06:49:25;;;;;;;;;1.40;1.20;;;;;20.62;57.12;99557.16;5015754;28;8900;-59
2023/07/16 06:51:53;;;;;;;;;4.40;4.00;;;;;20.71;57.05;99554.09;5015456;28;8811;-59
2023/07/16 06:54:20;;;;;;;;;4.20;4.00;;;;;20.79;56.62;99554.78;5033263;28;8825;-58
2023/07/16 06:56:48;;;;;;;;;6.60;5.40;;;;;20.85;56.46;99558.56;5017273;28;8810;-59
2023/07/16 06:59:16;;;;;;;;;2.40;2.40;;;;;20.85;55.88;99555.88;5015791;28;8824;-59
2023/07/16 07:01:44;;;;;;;;;7.20;7.00;;;;;20.80;56.28;99555.63;5015512;28;8822;-60
2023/07/16 07:04:12;;;;;;;;;4.20;4.20;;;;;20.80;56.12;99556.47;5017026;28;8845;-58
2023/07/16 07:06:39;;;;;;;;;3.20;3.20;;;;;20.84;55.69;99556.91;5015686;28;8885;-59
2023/07/16 07:09:07;;;;;;;;;1.80;1.40;;;;;20.78;56.05;99557.69;5016614;28;8842;-58
2023/07/16 07:11:35;;;;;;;;;4.20;4.20;;;;;20.71;56.07;99594.69;5015567;28;8841;-59
2023/07/16 07:14:02;;;;;;;;;4.60;4.20;;;;;20.60;56.25;99564.59;5015166;28;8826;-59
2023/07/16 07:16:30;;;;;;;;;5.40;5.00;;;;;20.55;56.48;99562.47;5024456;28;8820;-59
2023/07/16 07:18:58;;;;;;;;;6.20;4.60;;;;;20.50;56.43;99559.53;5035014;28;8940;-59
2023/07/16 07:21:28;;;;;;;;;3.20;3.20;;;;;20.45;56.40;99559.28;5035172;28;8947;-58
2023/07/16 07:23:55;;;;;;;;;4.80;4.00;;;;;20.41;56.12;99573.38;5035047;28;8831;-60
2023/07/16 07:26:23;;;;;;;;;4.80;4.00;;;;;20.51;56.14;99563.06;5034895;28;8832;-59
2023/07/16 07:28:50;;;;;;;;;3.60;3.60;;;;;20.56;55.42;99563.34;5035205;28;8843;-59
2023/07/16 07:31:18;;;;;;;;;4.20;4.00;;;;;20.58;55.67;99561.25;5035274;28;8835;-59
2023/07/16 07:33:46;;;;;;;;;2.00;2.00;;;;;20.55;55.51;99556.25;5035145;28;8820;-58
2023/07/16 07:36:14;;;;;;;;;3.20;2.00;;;;;20.58;55.37;99555.84;5035044;28;8856;-59
2023/07/16 07:38:42;;;;;;;;;4.20;2.20;;;;;20.67;55.09;99561.75;5035053;28;8870;-59
2023/07/16 07:41:09;;;;;;;;;4.00;3.60;;;;;20.77;54.54;99561.44;5034777;28;8852;-58
2023/07/16 07:43:39;;;;;;;;;4.60;4.40;;;;;20.92;54.63;99560.34;5035759;28;9513;-58
2023/07/16 07:46:07;;;;;;;;;4.20;4.20;;;;;21.06;53.98;99562.13;5034657;28;9592;-58
2023/07/16 07:48:35;;;;;;;;;4.40;4.40;;;;;21.21;53.57;99564.69;5014949;28;8853;-59
2023/07/16 07:51:03;;;;;;;;;4.40;4.00;;;;;21.32;52.98;99572.25;5014911;28;9527;-60
2023/07/16 07:53:31;;;;;;;;;1.40;1.00;;;;;21.34;52.85;99570.22;5016185;28;8919;-58
2023/07/16 07:55:58;;;;;;;;;1.40;0.80;;;;;21.35;52.88;99569.16;5034029;28;8847;-59
2023/07/16 07:58:26;;;;;;;;;4.20;4.00;;;;;21.48;52.60;99567.34;5033620;28;8827;-58
2023/07/16 08:00:54;;;;;;;;;4.40;4.00;;;;;21.64;52.05;99577.03;5033156;28;8850;-58
2023/07/16 08:03:22;;;;;;;;;3.60;3.60;;;;;21.82;51.92;99580.06;5032009;28;8826;-60
2023/07/16 08:05:50;;;;;;;;;4.00;4.00;;;;;22.00;51.11;99569.50;5033973;28;8872;-59
2023/07/16 08:08:18;;;;;;;;;4.00;4.00;;;;;22.10;51.06;99578.91;5032947;28;8832;-61
2023/07/16 08:10:47;;;;;;;;;5.00;4.80;;;;;22.18;50.71;99577.91;5034255;28;8824;-61
2023/07/16 08:13:15;;;;;;;;;2.00;2.00;;;;;22.22;50.57;99581.88;5034069;28;8839;-59
2023/07/16 08:15:43;;;;;;;;;2.00;2.00;;;;;22.32;50.76;99576.91;5029421;28;8837;-59
2023/07/16 08:18:11;;;;;;;;;4.20;4.20;;;;;22.41;50.54;99572.94;5028487;28;8808;-60
2023/07/16 08:20:40;;;;;;;;;2.80;2.80;;;;;22.51;50.34;99576.97;5013872;28;8853;-59
2023/07/16 08:23:09;;;;;;;;;4.00;4.00;;;;;22.57;49.71;99586.16;5013817;28;8834;-59
2023/07/16 08:25:37;;;;;;;;;1.80;1.00;;;;;22.63;49.60;99582.63;5014630;28;8830;-60
2023/07/16 08:28:07;;;;;;;;;5.80;5.00;;;;;22.61;50.17;99585.53;5016343;28;8832;-58
2023/07/16 08:30:35;;;;;;;;;5.00;5.00;;;;;22.62;49.68;99586.38;5018810;28;8830;-60
2023/07/16 08:33:02;;;;;;;;;5.00;4.00;;;;;22.74;49.83;99603.69;5014713;28;8838;-60
2023/07/16 08:35:31;;;;;;;;;4.60;3.60;;;;;22.81;49.41;99589.09;5031037;28;8836;-60
2023/07/16 08:37:58;;;;;;;;;4.40;4.00;;;;;22.83;49.23;99592.44;5033048;28;8824;-58
2023/07/16 08:40:27;;;;;;;;;4.00;4.00;;;;;22.92;49.06;99593.06;5030798;28;8824;-60
2023/07/16 08:42:55;;;;;;;;;4.80;4.00;;;;;23.01;48.95;99610.81;5033506;28;8953;-59
2023/07/16 08:45:23;;;;;;;;;4.00;3.20;;;;;23.11;48.27;99589.50;5015929;28;9510;-58
2023/07/16 08:47:53;;;;;;;;;5.40;5.20;;;;;23.09;48.49;99605.19;5022152;28;8832;-58
2023/07/16 08:50:21;;;;;;;;;4.20;4.00;;;;;23.00;48.08;99609.16;5020050;28;8825;-60
2023/07/16 08:52:49;;;;;;;;;4.40;4.00;;;;;23.02;48.07;99610.63;5013514;28;8854;-59
2023/07/16 08:55:17;;;;;;;;;3.60;3.60;;;;;23.00;47.95;99603.72;5025360;28;8812;-59
2023/07/16 08:57:44;;;;;;;;;3.60;3.60;;;;;23.07;48.27;99607.28;5033716;28;8828;-58
2023/07/16 09:00:13;;;;;;;;;4.40;3.60;;;;;23.22;47.89;99616.91;5028441;28;9600;-59
2023/07/16 09:02:41;;;;;;;;;4.00;2.00;;;;;23.42;47.36;99633.19;5033248;28;8874;-59
2023/07/16 09:05:08;;;;;;;;;5.00;4.00;;;;;23.50;47.04;99622.94;5024268;28;8839;-60
2023/07/16 09:07:47;;;;;;;;;2.40;2.40;;;;;23.45;46.45;99624.63;5015223;28;8834;-58
2023/07/16 09:10:15;;;;;;;;;4.00;4.00;;;;;23.35;47.11;99618.75;5014113;28;8826;-58
2023/07/16 09:12:43;;;;;;;;;4.80;2.40;;;;;23.30;46.99;99618.59;5013595;28;8830;-58
2023/07/16 09:15:11;;;;;;;;;4.00;4.00;;;;;23.26;47.35;99612.72;5016022;28;8838;-59
2023/07/16 09:17:39;;;;;;;;;3.20;3.20;;;;;23.34;47.24;99611.66;5019040;28;8838;-60
2023/07/16 09:20:08;;;;;;;;;5.40;2.80;;;;;23.49;46.16;99610.38;5033519;28;9531;-58
2023/07/16 09:22:36;;;;;;;;;4.00;2.40;;;;;23.44;46.15;99612.91;5033126;28;8831;-59
2023/07/16 09:25:04;;;;;;;;;5.40;5.00;;;;;23.38;46.50;99627.34;5033283;28;8916;-59
2023/07/16 09:27:31;;;;;;;;;4.40;4.20;;;;;23.24;46.36;99619.41;5032706;28;8863;-58
2023/07/16 09:30:02;;;;;;;;;5.20;4.60;;;;;23.10;46.88;99623.16;5032992;28;8864;-58
2023/07/16 09:32:30;;;;;;;;;4.00;2.80;;;;;22.90;46.93;99630.44;5033266;28;8923;-58
2023/07/16 09:34:58;;;;;;;;;4.00;4.00;;;;;22.83;47.04;99624.22;5032945;28;8840;-59
2023/07/16 09:37:26;;;;;;;;;4.60;4.60;;;;;22.89;46.83;99626.06;5032939;28;8913;-59
2023/07/16 09:39:54;;;;;;;;;4.00;4.00;;;;;22.99;47.12;99624.63;5033103;28;8856;-58
2023/07/16 09:42:23;;;;;;;;;1.60;0.80;;;;;23.08;46.79;99627.97;5032709;28;8836;-60
2023/07/16 09:44:52;;;;;;;;;4.40;4.00;;;;;23.33;46.70;99623.59;5033258;28;9597;-59
2023/07/16 09:47:20;;;;;;;;;2.00;2.00;;;;;23.56;45.78;99632.13;5033240;28;8812;-59
2023/07/16 09:49:51;;;;;;;;;3.80;3.80;;;;;23.88;45.35;99626.63;5018023;28;8830;-60
2023/07/16 09:52:20;;;;;;;;;4.80;4.60;;;;;24.04;45.00;99631.59;5028903;28;8835;-58
2023/07/16 09:54:47;;;;;;;;;2.00;1.20;;;;;24.27;44.58;99617.47;5019497;28;8819;-59
2023/07/16 09:57:15;;;;;;;;;4.60;4.20;;;;;24.47;44.04;99612.72;5013780;28;8934;-59
2023/07/16 09:59:43;;;;;;;;;5.00;4.40;;;;;24.74;43.81;99617.81;5012890;28;8920;-59
2023/07/16 10:02:11;;;;;;;;;4.60;3.20;;;;;24.99;43.40;99623.28;5012858;28;8838;-59
2023/07/16 10:04:40;;;;;;;;;5.20;3.40;;;;;25.23;42.65;99626.06;5013724;28;8826;-60
2023/07/16 10:07:08;;;;;;;;;0.60;0.60;;;;;25.60;41.68;99622.34;5012862;28;8854;-59
2023/07/16 10:09:36;;;;;;;;;5.60;5.60;;;;;25.90;41.15;99621.38;5013723;28;8973;-59
2023/07/16 10:12:04;;;;;;;;;5.20;3.00;;;;;26.11;41.56;99617.38;5012406;28;8846;-59
2023/07/16 10:14:35;;;;;;;;;3.40;2.40;;;;;26.47;40.65;99618.13;5021591;28;8904;-61
2023/07/16 10:17:04;;;;;;;;;7.00;5.20;;;;;26.75;39.68;99623.84;5031038;28;8824;-60
2023/07/16 10:19:32;;;;;;;;;3.40;3.40;;;;;26.98;40.11;99612.97;5012424;28;8826;-59
2023/07/16 10:21:59;;;;;;;;;4.40;3.60;;;;;27.37;39.29;99609.56;5021639;28;9489;-60
2023/07/16 10:24:28;;;;;;;;;4.40;3.60;;;;;27.63;38.73;99622.75;5032162;28;8828;-58
2023/07/16 10:26:56;;;;;;;;;3.20;2.80;;;;;27.92;39.15;99627.28;5029507;28;8830;-61
2023/07/16 10:29:24;;;;;;;;;4.20;2.80;;;;;28.32;38.17;99630.88;5032403;28;8879;-58
2023/07/16 10:31:52;;;;;;;;;7.00;5.60;;;;;28.62;37.74;99625.19;5032508;28;8912;-59
2023/07/16 10:34:20;;;;;;;;;6.00;5.20;;;;;28.69;37.07;99632.19;5031897;28;8892;-61
2023/07/16 10:36:48;;;;;;;;;6.00;4.40;;;;;28.87;37.17;99634.69;5032083;28;8851;-60
2023/07/16 10:39:16;;;;;;;;;5.60;4.40;;;;;28.92;36.57;99643.03;5030191;28;8820;-59
2023/07/16 10:41:44;;;;;;;;;6.20;6.20;;;;;28.98;36.41;99620.09;5012254;28;8830;-61
2023/07/16 10:44:12;;;;;;;;;3.00;3.00;;;;;28.87;36.79;99634.69;5020316;28;8904;-58
2023/07/16 10:46:40;;;;;;;;;4.20;3.20;;;;;29.14;36.26;99630.25;5030825;28;8832;-59
2023/07/16 10:49:08;;;;;;;;;5.40;4.40;;;;;28.87;36.61;99639.34;5013363;28;8818;-58
2023/07/16 10:51:37;;;;;;;;;2.60;2.60;;;;;28.44;37.38;99642.66;5014596;28;9567;-58
2023/07/16 10:54:06;;;;;;;;;4.40;4.00;;;;;28.08;37.83;99634.72;5023032;28;8816;-59
2023/07/16 10:56:34;;;;;;;;;3.00;3.00;;;;;28.11;37.28;99639.75;5032967;28;8912;-58
2023/07/16 10:59:02;;;;;;;;;4.80;4.00;;;;;27.97;37.73;99640.25;5034739;28;8935;-59
2023/07/16 11:01:31;;;;;;;;;2.80;2.00;;;;;27.72;37.53;99645.97;5034356;28;8956;-59
2023/07/16 11:03:59;;;;;;;;;4.40;3.60;;;;;27.52;38.43;99647.38;5035233;28;8832;-60
2023/07/16 11:06:27;;;;;;;;;3.60;3.60;;;;;27.71;38.33;99651.69;5033414;28;8836;-59
2023/07/16 11:08:55;;;;;;;;;4.80;4.00;;;;;27.56;38.18;99649.41;5033918;28;8919;-60
2023/07/16 11:11:22;;;;;;;;;1.60;1.60;;;;;27.59;38.16;99646.22;5034853;28;8968;-59
2023/07/16 11:13:51;;;;;;;;;5.20;4.00;;;;;27.81;37.33;99658.25;5029383;28;8838;-59
2023/07/16 11:16:19;;;;;;;;;3.20;3.20;;;;;27.48;38.14;99649.75;5016535;28;8857;-60
2023/07/16 11:18:48;;;;;;;;;3.80;2.20;;;;;27.04;38.62;99647.56;5034779;28;8971;-60
2023/07/16 11:21:16;;;;;;;;;3.00;3.00;;;;;26.97;38.68;99652.31;5034566;28;8847;-61
2023/07/16 11:23:44;;;;;;;;;2.00;2.00;;;;;26.81;38.39;99652.97;5034360;28;8954;-59
2023/07/16 11:26:12;;;;;;;;;4.20;4.20;;;;;26.52;38.62;99663.91;5035009;28;8839;-59
2023/07/16 11:28:40;;;;;;;;;3.00;3.00;;;;;26.38;39.44;99657.75;5034996;28;8839;-59
2023/07/16 11:31:08;;;;;;;;;3.00;2.40;;;;;26.10;39.40;99668.41;5034470;28;8943;-59
2023/07/16 11:33:36;;;;;;;;;2.80;2.00;;;;;26.27;39.31;99661.25;5034358;28;8820;-59
2023/07/16 11:36:04;;;;;;;;;3.00;3.00;;;;;26.85;38.42;99661.56;5034409;28;8845;-58
2023/07/16 11:38:32;;;;;;;;;3.20;2.80;;;;;26.99;38.25;99654.78;5033996;28;8843;-59
2023/07/16 11:41:03;;;;;;;;;1.40;1.00;;;;;27.48;37.38;99666.19;5033403;28;9668;-61
2023/07/16 11:43:31;;;;;;;;;2.00;2.00;;;;;27.88;36.67;99656.22;5034086;28;8832;-61